createdAt,value
2018-05-12T00:00:07.317Z,21.89
2018-05-12T00:01:07.332Z,21.89
2018-05-12T00:02:07.339Z,21.85
2018-05-12T00:03:07.360Z,21.80
2018-05-12T00:04:07.379Z,21.78
2018-05-12T00:05:07.486Z,21.77
2018-05-12T00:06:07.409Z,21.68
2018-05-12T00:07:07.544Z,21.68
2018-05-12T00:08:07.560Z,21.72
2018-05-12T00:09:07.578Z,21.72
2018-05-12T00:10:07.572Z,21.66
2018-05-12T00:11:07.480Z,21.60
2018-05-12T00:12:07.510Z,21.65
2018-05-12T00:13:07.639Z,21.60
2018-05-12T00:14:07.655Z,21.60
2018-05-12T00:15:07.644Z,21.60
2018-05-12T00:16:07.692Z,21.54
2018-05-12T00:17:07.588Z,21.53
2018-05-12T00:18:07.719Z,21.56
2018-05-12T00:19:07.617Z,21.53
2018-05-12T00:20:07.728Z,21.56
2018-05-12T00:21:07.769Z,21.56
2018-05-12T00:22:07.660Z,21.62
2018-05-12T00:23:07.800Z,21.58
2018-05-12T00:24:07.815Z,21.50
2018-05-12T00:25:07.985Z,21.59
2018-05-12T00:26:07.848Z,21.53
2018-05-12T00:27:07.746Z,21.43
2018-05-12T00:28:07.755Z,21.43
2018-05-12T00:29:07.782Z,21.45
2018-05-12T00:30:07.888Z,21.48
2018-05-12T00:31:07.810Z,21.44
2018-05-12T00:32:07.825Z,21.37
2018-05-12T00:33:07.834Z,21.29
2018-05-12T00:34:07.977Z,21.32
2018-05-12T00:35:08.092Z,21.17
2018-05-12T00:36:08.008Z,21.19
2018-05-12T00:37:07.896Z,21.15
2018-05-12T00:38:08.042Z,21.08
2018-05-12T00:39:07.929Z,21.04
2018-05-12T00:40:08.126Z,20.98
2018-05-12T00:41:07.961Z,20.95
2018-05-12T00:42:08.107Z,20.93
2018-05-12T00:43:08.119Z,20.90
2018-05-12T00:44:08.137Z,20.89
2018-05-12T00:45:08.128Z,20.74
2018-05-12T00:46:08.042Z,20.77
2018-05-12T00:47:08.056Z,20.73
2018-05-12T00:48:08.199Z,20.73
2018-05-12T00:49:08.215Z,20.75
2018-05-12T00:50:08.207Z,20.75
2018-05-12T00:51:08.129Z,20.63
2018-05-12T00:52:08.265Z,20.58
2018-05-12T00:53:08.281Z,20.55
2018-05-12T00:54:08.295Z,20.44
2018-05-12T00:55:08.360Z,20.50
2018-05-12T00:56:08.325Z,20.52
2018-05-12T00:57:08.218Z,20.42
2018-05-12T00:58:08.242Z,20.46
2018-05-12T00:59:08.247Z,20.37
2018-05-12T01:00:08.541Z,20.22
2018-05-12T01:01:08.407Z,20.32
2018-05-12T01:02:08.302Z,20.30
2018-05-12T01:03:08.324Z,20.26
2018-05-12T01:04:08.332Z,20.29
2018-05-12T01:05:08.618Z,20.27
2018-05-12T01:06:08.483Z,20.10
2018-05-12T01:07:08.499Z,20.15
2018-05-12T01:08:08.388Z,20.18
2018-05-12T01:09:08.410Z,20.12
2018-05-12T01:10:08.548Z,20.14
2018-05-12T01:11:08.588Z,20.22
2018-05-12T01:12:08.577Z,20.21
2018-05-12T01:13:08.591Z,20.14
2018-05-12T01:14:08.493Z,20.17
2018-05-12T01:15:08.502Z,20.14
2018-05-12T01:16:08.671Z,20.11
2018-05-12T01:17:08.655Z,20.02
2018-05-12T01:18:08.552Z,19.99
2018-05-12T01:19:08.688Z,19.97
2018-05-12T01:20:08.573Z,19.89
2018-05-12T01:21:08.743Z,19.84
2018-05-12T01:22:08.610Z,19.77
2018-05-12T01:23:08.629Z,19.87
2018-05-12T01:24:08.651Z,19.84
2018-05-12T01:25:08.667Z,19.78
2018-05-12T01:26:08.683Z,19.82
2018-05-12T01:27:08.853Z,19.87
2018-05-12T01:28:08.697Z,19.97
2018-05-12T01:29:08.843Z,19.93
2018-05-12T01:30:08.745Z,19.96
2018-05-12T01:31:08.745Z,19.96
2018-05-12T01:32:08.989Z,19.94
2018-05-12T01:33:08.776Z,19.93
2018-05-12T01:34:08.918Z,19.94
2018-05-12T01:35:08.806Z,19.93
2018-05-12T01:36:08.825Z,20.02
2018-05-12T01:37:09.116Z,20.03
2018-05-12T01:38:08.851Z,20.03
2018-05-12T01:39:08.995Z,19.92
2018-05-12T01:40:08.883Z,19.90
2018-05-12T01:41:08.905Z,19.89
2018-05-12T01:42:09.028Z,19.99
2018-05-12T01:43:08.935Z,19.94
2018-05-12T01:44:09.072Z,19.92
2018-05-12T01:45:08.968Z,19.94
2018-05-12T01:46:08.990Z,19.97
2018-05-12T01:47:09.269Z,19.93
2018-05-12T01:48:09.136Z,20.04
2018-05-12T01:49:09.149Z,20.04
2018-05-12T01:50:09.040Z,20.00
2018-05-12T01:51:09.067Z,20.10
2018-05-12T01:52:09.345Z,20.08
2018-05-12T01:53:09.086Z,20.17
2018-05-12T01:54:09.106Z,20.18
2018-05-12T01:55:09.246Z,20.15
2018-05-12T01:56:09.257Z,20.18
2018-05-12T01:57:09.309Z,20.19
2018-05-12T01:58:09.163Z,20.21
2018-05-12T01:59:09.299Z,20.19
2018-05-12T02:00:09.192Z,20.18
2018-05-12T02:01:09.214Z,20.15
2018-05-12T02:02:09.322Z,20.10
2018-05-12T02:03:09.362Z,20.24
2018-05-12T02:04:09.265Z,20.15
2018-05-12T02:05:09.272Z,20.17
2018-05-12T02:06:09.406Z,20.27
2018-05-12T02:07:09.576Z,20.22
2018-05-12T02:08:09.441Z,20.27
2018-05-12T02:09:09.327Z,20.27
2018-05-12T02:10:09.467Z,20.27
2018-05-12T02:11:09.485Z,20.24
2018-05-12T02:12:09.381Z,20.26
2018-05-12T02:13:09.542Z,20.19
2018-05-12T02:14:09.532Z,20.15
2018-05-12T02:15:09.545Z,20.17
2018-05-12T02:16:09.441Z,20.15
2018-05-12T02:17:09.452Z,20.21
2018-05-12T02:18:09.623Z,20.26
2018-05-12T02:19:09.609Z,20.26
2018-05-12T02:20:09.504Z,20.30
2018-05-12T02:21:09.524Z,20.27
2018-05-12T02:22:09.654Z,20.27
2018-05-12T02:23:09.667Z,20.29
2018-05-12T02:24:09.716Z,20.26
2018-05-12T02:25:09.578Z,20.32
2018-05-12T02:26:09.715Z,20.37
2018-05-12T02:27:09.730Z,20.36
2018-05-12T02:28:09.620Z,20.40
2018-05-12T02:29:09.860Z,20.40
2018-05-12T02:30:09.650Z,20.40
2018-05-12T02:31:09.791Z,20.37
2018-05-12T02:32:09.692Z,20.40
2018-05-12T02:33:09.837Z,20.39
2018-05-12T02:34:09.821Z,20.39
2018-05-12T02:35:09.853Z,20.39
2018-05-12T02:36:09.742Z,20.46
2018-05-12T02:37:09.762Z,20.39
2018-05-12T02:38:09.769Z,20.44
2018-05-12T02:39:09.914Z,20.34
2018-05-12T02:40:09.970Z,20.26
2018-05-12T02:41:09.817Z,20.27
2018-05-12T02:42:09.958Z,20.33
2018-05-12T02:43:09.850Z,20.33
2018-05-12T02:44:09.868Z,20.32
2018-05-12T02:45:10.105Z,20.32
2018-05-12T02:46:09.906Z,20.24
2018-05-12T02:47:10.037Z,20.27
2018-05-12T02:48:10.049Z,20.15
2018-05-12T02:49:09.952Z,20.15
2018-05-12T02:50:10.179Z,20.18
2018-05-12T02:51:10.098Z,20.14
2018-05-12T02:52:10.111Z,20.17
2018-05-12T02:53:09.999Z,20.19
2018-05-12T02:54:10.022Z,20.04
2018-05-12T02:55:10.133Z,20.03
2018-05-12T02:56:10.172Z,20.07
2018-05-12T02:57:10.187Z,20.03
2018-05-12T02:58:10.079Z,20.10
2018-05-12T02:59:10.100Z,20.04
2018-05-12T03:00:10.220Z,20.03
2018-05-12T03:01:10.120Z,19.93
2018-05-12T03:02:10.263Z,19.99
2018-05-12T03:03:10.161Z,19.85
2018-05-12T03:04:10.172Z,19.87
2018-05-12T03:05:10.301Z,19.82
2018-05-12T03:06:10.327Z,19.77
2018-05-12T03:07:10.212Z,19.71
2018-05-12T03:08:10.360Z,19.64
2018-05-12T03:09:10.246Z,19.64
2018-05-12T03:10:10.488Z,19.64
2018-05-12T03:11:10.273Z,19.64
2018-05-12T03:12:10.293Z,19.64
2018-05-12T03:13:10.312Z,19.62
2018-05-12T03:14:10.447Z,19.62
2018-05-12T03:15:10.442Z,19.66
2018-05-12T03:16:10.347Z,19.57
2018-05-12T03:17:10.363Z,19.66
2018-05-12T03:18:10.394Z,19.64
2018-05-12T03:19:10.399Z,19.63
2018-05-12T03:20:10.508Z,19.63
2018-05-12T03:21:10.433Z,19.53
2018-05-12T03:22:10.451Z,19.62
2018-05-12T03:23:10.580Z,19.52
2018-05-12T03:24:10.471Z,19.60
2018-05-12T03:25:10.493Z,19.60
2018-05-12T03:26:10.549Z,19.63
2018-05-12T03:27:10.642Z,19.62
2018-05-12T03:28:10.538Z,19.66
2018-05-12T03:29:10.547Z,19.64
2018-05-12T03:30:10.686Z,19.60
2018-05-12T03:31:10.574Z,19.67
2018-05-12T03:32:10.820Z,19.60
2018-05-12T03:33:10.740Z,19.62
2018-05-12T03:34:10.618Z,19.63
2018-05-12T03:35:10.767Z,19.62
2018-05-12T03:36:10.833Z,19.63
2018-05-12T03:37:10.764Z,19.64
2018-05-12T03:38:10.806Z,19.66
2018-05-12T03:39:10.693Z,19.66
2018-05-12T03:40:10.835Z,19.67
2018-05-12T03:41:10.850Z,19.70
2018-05-12T03:42:10.848Z,19.66
2018-05-12T03:43:10.880Z,19.64
2018-05-12T03:44:10.896Z,19.62
2018-05-12T03:45:10.910Z,19.60
2018-05-12T03:46:10.925Z,19.64
2018-05-12T03:47:10.942Z,19.60
2018-05-12T03:48:11.055Z,19.59
2018-05-12T03:49:10.851Z,19.66
2018-05-12T03:50:10.860Z,19.64
2018-05-12T03:51:10.882Z,19.57
2018-05-12T03:52:10.890Z,19.59
2018-05-12T03:53:11.017Z,19.55
2018-05-12T03:54:10.918Z,19.53
2018-05-12T03:55:11.059Z,19.48
2018-05-12T03:56:10.948Z,19.48
2018-05-12T03:57:11.089Z,19.47
2018-05-12T03:58:11.089Z,19.42
2018-05-12T03:59:10.997Z,19.42
2018-05-12T04:00:11.133Z,19.37
2018-05-12T04:01:11.148Z,19.35
2018-05-12T04:02:11.051Z,19.23
2018-05-12T04:03:11.164Z,19.26
2018-05-12T04:04:11.194Z,19.24
2018-05-12T04:05:11.207Z,19.22
2018-05-12T04:06:11.223Z,19.23
2018-05-12T04:07:11.114Z,19.20
2018-05-12T04:08:11.352Z,19.22
2018-05-12T04:09:11.267Z,19.26
2018-05-12T04:10:11.155Z,19.19
2018-05-12T04:11:11.300Z,19.17
2018-05-12T04:12:11.188Z,19.12
2018-05-12T04:13:11.309Z,19.11
2018-05-12T04:14:11.214Z,19.16
2018-05-12T04:15:11.231Z,19.09
2018-05-12T04:16:11.253Z,19.04
2018-05-12T04:17:11.261Z,19.05
2018-05-12T04:18:11.500Z,19.01
2018-05-12T04:19:11.289Z,19.09
2018-05-12T04:20:11.308Z,19.04
2018-05-12T04:21:11.445Z,19.05
2018-05-12T04:22:11.331Z,19.05
2018-05-12T04:23:11.575Z,19.07
2018-05-12T04:24:11.492Z,19.04
2018-05-12T04:25:11.378Z,18.96
2018-05-12T04:26:11.386Z,18.97
2018-05-12T04:27:11.533Z,18.92
2018-05-12T04:28:11.550Z,18.89
2018-05-12T04:29:11.538Z,18.94
2018-05-12T04:30:11.460Z,18.88
2018-05-12T04:31:11.469Z,18.83
2018-05-12T04:32:11.607Z,18.86
2018-05-12T04:33:11.498Z,18.76
2018-05-12T04:34:11.609Z,18.76
2018-05-12T04:35:11.652Z,18.71
2018-05-12T04:36:11.536Z,18.58
2018-05-12T04:37:11.681Z,18.57
2018-05-12T04:38:11.694Z,18.55
2018-05-12T04:39:11.812Z,18.58
2018-05-12T04:40:11.597Z,18.49
2018-05-12T04:41:11.740Z,18.48
2018-05-12T04:42:11.753Z,18.36
2018-05-12T04:43:11.736Z,18.46
2018-05-12T04:44:11.882Z,18.41
2018-05-12T04:45:11.800Z,18.41
2018-05-12T04:46:11.811Z,18.31
2018-05-12T04:47:11.832Z,18.34
2018-05-12T04:48:11.728Z,18.19
2018-05-12T04:49:11.860Z,18.21
2018-05-12T04:50:11.972Z,18.13
2018-05-12T04:51:11.884Z,18.21
2018-05-12T04:52:11.784Z,18.11
2018-05-12T04:53:11.782Z,18.09
2018-05-12T04:54:11.887Z,18.03
2018-05-12T04:55:11.918Z,18.06
2018-05-12T04:56:11.840Z,18.02
2018-05-12T04:57:11.847Z,17.95
2018-05-12T04:58:11.868Z,17.84
2018-05-12T04:59:11.876Z,17.88
2018-05-12T05:00:12.117Z,17.86
2018-05-12T05:01:11.915Z,17.73
2018-05-12T05:02:11.921Z,17.75
2018-05-12T05:03:11.930Z,17.76
2018-05-12T05:04:12.072Z,17.79
2018-05-12T05:05:12.190Z,17.82
2018-05-12T05:06:12.101Z,17.69
2018-05-12T05:07:11.989Z,17.73
2018-05-12T05:08:12.107Z,17.68
2018-05-12T05:09:12.027Z,17.66
2018-05-12T05:10:12.261Z,17.69
2018-05-12T05:11:12.173Z,17.57
2018-05-12T05:12:12.070Z,17.63
2018-05-12T05:13:12.081Z,17.60
2018-05-12T05:14:12.216Z,17.66
2018-05-12T05:15:12.293Z,17.52
2018-05-12T05:16:12.244Z,17.52
2018-05-12T05:17:12.259Z,17.54
2018-05-12T05:18:12.276Z,17.47
2018-05-12T05:19:12.174Z,17.49
2018-05-12T05:20:12.401Z,17.39
2018-05-12T05:21:12.327Z,17.42
2018-05-12T05:22:12.215Z,17.49
2018-05-12T05:23:12.348Z,17.37
2018-05-12T05:24:12.237Z,17.34
2018-05-12T05:25:12.356Z,17.34
2018-05-12T05:26:12.387Z,17.38
2018-05-12T05:27:12.284Z,17.52
2018-05-12T05:28:12.289Z,17.46
2018-05-12T05:29:12.431Z,17.46
2018-05-12T05:30:12.544Z,17.42
2018-05-12T05:31:12.340Z,17.57
2018-05-12T05:32:12.474Z,17.49
2018-05-12T05:33:12.375Z,17.47
2018-05-12T05:34:12.501Z,17.50
2018-05-12T05:35:12.666Z,17.34
2018-05-12T05:36:12.409Z,17.47
2018-05-12T05:37:12.543Z,17.44
2018-05-12T05:38:12.431Z,17.42
2018-05-12T05:39:12.574Z,17.39
2018-05-12T05:40:12.513Z,17.52
2018-05-12T05:41:12.475Z,17.53
2018-05-12T05:42:12.496Z,17.54
2018-05-12T05:43:12.505Z,17.60
2018-05-12T05:44:12.517Z,17.69
2018-05-12T05:45:12.542Z,17.68
2018-05-12T05:46:12.660Z,17.73
2018-05-12T05:47:12.559Z,17.79
2018-05-12T05:48:12.700Z,17.86
2018-05-12T05:49:12.589Z,17.84
2018-05-12T05:50:12.692Z,17.87
2018-05-12T05:51:12.715Z,17.82
2018-05-12T05:52:12.760Z,17.98
2018-05-12T05:53:12.655Z,18.05
2018-05-12T05:54:12.668Z,18.13
2018-05-12T05:55:12.682Z,18.08
2018-05-12T05:56:12.915Z,18.15
2018-05-12T05:57:12.832Z,18.21
2018-05-12T05:58:12.845Z,18.30
2018-05-12T05:59:12.857Z,18.41
2018-05-12T06:00:12.744Z,18.46
2018-05-12T06:01:12.875Z,18.49
2018-05-12T06:02:12.902Z,18.60
2018-05-12T06:03:12.803Z,18.53
2018-05-12T06:04:12.806Z,18.66
2018-05-12T06:05:12.825Z,18.63
2018-05-12T06:06:12.931Z,18.64
2018-05-12T06:07:13.078Z,18.67
2018-05-12T06:08:12.988Z,18.67
2018-05-12T06:09:12.875Z,18.70
2018-05-12T06:10:13.016Z,18.63
2018-05-12T06:11:13.055Z,18.63
2018-05-12T06:12:12.924Z,18.55
2018-05-12T06:13:12.945Z,18.58
2018-05-12T06:14:12.960Z,18.64
2018-05-12T06:15:12.963Z,18.57
2018-05-12T06:16:13.078Z,18.66
2018-05-12T06:17:12.993Z,18.55
2018-05-12T06:18:13.177Z,18.60
2018-05-12T06:19:13.146Z,18.66
2018-05-12T06:20:13.160Z,18.57
2018-05-12T06:21:13.156Z,18.57
2018-05-12T06:22:13.061Z,18.58
2018-05-12T06:23:13.075Z,18.57
2018-05-12T06:24:13.222Z,18.61
2018-05-12T06:25:13.110Z,18.64
2018-05-12T06:26:13.225Z,18.70
2018-05-12T06:27:13.264Z,18.64
2018-05-12T06:28:13.283Z,18.70
2018-05-12T06:29:13.166Z,18.78
2018-05-12T06:30:13.187Z,18.76
2018-05-12T06:31:13.193Z,18.81
2018-05-12T06:32:13.486Z,18.88
2018-05-12T06:33:13.226Z,18.83
2018-05-12T06:34:13.244Z,18.82
2018-05-12T06:35:13.253Z,18.82
2018-05-12T06:36:13.395Z,18.82
2018-05-12T06:37:13.380Z,18.79
2018-05-12T06:38:13.299Z,18.78
2018-05-12T06:39:13.511Z,18.79
2018-05-12T06:40:13.338Z,18.89
2018-05-12T06:41:13.467Z,18.91
2018-05-12T06:42:13.629Z,19.09
2018-05-12T06:43:13.496Z,19.08
2018-05-12T06:44:13.509Z,19.12
2018-05-12T06:45:13.408Z,19.12
2018-05-12T06:46:13.536Z,19.26
2018-05-12T06:47:13.653Z,19.23
2018-05-12T06:48:13.566Z,19.32
2018-05-12T06:49:13.583Z,19.49
2018-05-12T06:50:13.481Z,19.53
2018-05-12T06:51:13.495Z,19.49
2018-05-12T06:52:13.627Z,19.60
2018-05-12T06:53:13.740Z,19.49
2018-05-12T06:54:13.657Z,19.64
2018-05-12T06:55:13.549Z,19.74
2018-05-12T06:56:13.682Z,19.62
2018-05-12T06:57:13.565Z,19.74
2018-05-12T06:58:13.593Z,19.64
2018-05-12T06:59:13.704Z,19.72
2018-05-12T07:00:13.623Z,19.74
2018-05-12T07:01:13.762Z,19.75
2018-05-12T07:02:13.775Z,19.85
2018-05-12T07:03:13.670Z,19.70
2018-05-12T07:04:13.781Z,19.77
2018-05-12T07:05:13.813Z,19.85
2018-05-12T07:06:13.830Z,19.87
2018-05-12T07:07:13.844Z,19.99
2018-05-12T07:08:13.860Z,19.94
2018-05-12T07:09:13.897Z,19.89
2018-05-12T07:10:13.887Z,19.93
2018-05-12T07:11:13.775Z,20.00
2018-05-12T07:12:13.834Z,19.97
2018-05-12T07:13:13.934Z,19.93
2018-05-12T07:14:13.921Z,19.97
2018-05-12T07:15:13.838Z,19.85
2018-05-12T07:16:13.975Z,19.96
2018-05-12T07:17:13.990Z,19.96
2018-05-12T07:18:13.890Z,20.00
2018-05-12T07:19:14.021Z,19.97
2018-05-12T07:20:14.057Z,20.03
2018-05-12T07:21:14.050Z,20.00
2018-05-12T07:22:13.944Z,20.03
2018-05-12T07:23:13.961Z,20.04
2018-05-12T07:24:13.977Z,20.03
2018-05-12T07:25:14.083Z,20.02
2018-05-12T07:26:14.124Z,20.10
2018-05-12T07:27:14.138Z,20.02
2018-05-12T07:28:14.029Z,20.08
2018-05-12T07:29:14.050Z,20.11
2018-05-12T07:30:14.198Z,20.00
2018-05-12T07:31:14.080Z,19.96
2018-05-12T07:32:14.102Z,19.94
2018-05-12T07:33:14.108Z,19.92
2018-05-12T07:34:14.243Z,19.93
2018-05-12T07:35:14.283Z,19.90
2018-05-12T07:36:14.274Z,19.82
2018-05-12T07:37:14.289Z,19.99
2018-05-12T07:38:14.302Z,19.84
2018-05-12T07:39:14.317Z,19.78
2018-05-12T07:40:14.308Z,19.82
2018-05-12T07:41:14.224Z,19.82
2018-05-12T07:42:14.362Z,19.78
2018-05-12T07:43:14.258Z,19.79
2018-05-12T07:44:14.278Z,19.72
2018-05-12T07:45:14.282Z,19.74
2018-05-12T07:46:14.526Z,19.81
2018-05-12T07:47:14.309Z,19.70
2018-05-12T07:48:14.330Z,19.74
2018-05-12T07:49:14.467Z,19.70
2018-05-12T07:50:14.355Z,19.67
2018-05-12T07:51:14.597Z,19.62
2018-05-12T07:52:14.516Z,19.56
2018-05-12T07:53:14.531Z,19.53
2018-05-12T07:54:14.543Z,19.60
2018-05-12T07:55:14.431Z,19.53
2018-05-12T07:56:14.550Z,19.57
2018-05-12T07:57:14.470Z,19.60
2018-05-12T07:58:14.604Z,19.62
2018-05-12T07:59:14.617Z,19.60
2018-05-12T08:00:14.517Z,19.63
2018-05-12T08:01:14.696Z,19.64
2018-05-12T08:02:14.548Z,19.63
2018-05-12T08:03:14.559Z,19.70
2018-05-12T08:04:14.566Z,19.60
2018-05-12T08:05:14.588Z,19.59
2018-05-12T08:06:14.696Z,19.60
2018-05-12T08:07:14.736Z,19.57
2018-05-12T08:08:14.624Z,19.62
2018-05-12T08:09:14.765Z,19.60
2018-05-12T08:10:14.780Z,19.57
2018-05-12T08:11:14.895Z,19.45
2018-05-12T08:12:14.695Z,19.47
2018-05-12T08:13:14.703Z,19.52
2018-05-12T08:14:14.841Z,19.56
2018-05-12T08:15:14.732Z,19.45
2018-05-12T08:16:14.748Z,19.52
2018-05-12T08:17:14.987Z,19.49
2018-05-12T08:18:14.903Z,19.45
2018-05-12T08:19:14.913Z,19.53
2018-05-12T08:20:14.929Z,19.49
2018-05-12T08:21:14.819Z,19.48
2018-05-12T08:22:15.109Z,19.60
2018-05-12T08:23:14.848Z,19.60
2018-05-12T08:24:14.875Z,19.62
2018-05-12T08:25:14.891Z,19.64
2018-05-12T08:26:15.021Z,19.57
2018-05-12T08:27:15.054Z,19.56
2018-05-12T08:28:14.920Z,19.56
2018-05-12T08:29:14.938Z,19.52
2018-05-12T08:30:14.956Z,19.45
2018-05-12T08:31:15.092Z,19.45
2018-05-12T08:32:15.258Z,19.42
2018-05-12T08:33:15.004Z,19.45
2018-05-12T08:34:15.140Z,19.34
2018-05-12T08:35:15.024Z,19.30
2018-05-12T08:36:15.170Z,19.34
2018-05-12T08:37:15.332Z,19.30
2018-05-12T08:38:15.197Z,19.20
2018-05-12T08:39:15.083Z,19.20
2018-05-12T08:40:15.107Z,19.24
2018-05-12T08:41:15.255Z,19.24
2018-05-12T08:42:15.284Z,19.19
2018-05-12T08:43:15.158Z,19.15
2018-05-12T08:44:15.166Z,19.11
2018-05-12T08:45:15.173Z,19.16
2018-05-12T08:46:15.196Z,19.11
2018-05-12T08:47:15.428Z,19.07
2018-05-12T08:48:15.237Z,19.04
2018-05-12T08:49:15.360Z,19.07
2018-05-12T08:50:15.251Z,19.00
2018-05-12T08:51:15.282Z,18.97
2018-05-12T08:52:15.504Z,18.92
2018-05-12T08:53:15.419Z,18.98
2018-05-12T08:54:15.431Z,18.92
2018-05-12T08:55:15.339Z,18.96
2018-05-12T08:56:15.460Z,18.91
2018-05-12T08:57:15.346Z,18.92
2018-05-12T08:58:15.482Z,19.00
2018-05-12T08:59:15.504Z,18.96
2018-05-12T09:00:15.400Z,18.94
2018-05-12T09:01:15.407Z,18.98
2018-05-12T09:02:15.430Z,19.08
2018-05-12T09:03:15.667Z,19.05
2018-05-12T09:04:15.453Z,19.12
2018-05-12T09:05:15.474Z,19.16
2018-05-12T09:06:15.479Z,19.17
2018-05-12T09:07:15.575Z,19.26
2018-05-12T09:08:15.680Z,19.24
2018-05-12T09:09:15.536Z,19.30
2018-05-12T09:10:15.534Z,19.26
2018-05-12T09:11:15.567Z,19.30
2018-05-12T09:12:15.576Z,19.20
2018-05-12T09:13:15.869Z,19.20
2018-05-12T09:14:15.725Z,19.30
2018-05-12T09:15:15.625Z,19.30
2018-05-12T09:16:15.625Z,19.35
2018-05-12T09:17:15.650Z,19.32
2018-05-12T09:18:15.670Z,19.37
2018-05-12T09:19:15.775Z,19.37
2018-05-12T09:20:15.699Z,19.47
2018-05-12T09:21:15.710Z,19.55
2018-05-12T09:22:15.839Z,19.44
2018-05-12T09:23:15.859Z,19.59
2018-05-12T09:24:15.844Z,19.60
2018-05-12T09:25:15.766Z,19.62
2018-05-12T09:26:15.774Z,19.67
2018-05-12T09:27:15.795Z,19.77
2018-05-12T09:28:15.802Z,19.75
2018-05-12T09:29:15.927Z,19.81
2018-05-12T09:30:15.831Z,19.77
2018-05-12T09:31:15.861Z,19.75
2018-05-12T09:32:15.862Z,19.77
2018-05-12T09:33:15.895Z,19.85
2018-05-12T09:34:15.994Z,19.89
2018-05-12T09:35:16.034Z,19.85
2018-05-12T09:36:16.049Z,19.97
2018-05-12T09:37:16.043Z,19.89
2018-05-12T09:38:15.961Z,19.93
2018-05-12T09:39:16.118Z,19.93
2018-05-12T09:40:15.986Z,19.96
2018-05-12T09:41:15.995Z,19.92
2018-05-12T09:42:16.208Z,20.03
2018-05-12T09:43:16.152Z,20.03
2018-05-12T09:44:16.196Z,20.07
2018-05-12T09:45:16.072Z,20.03
2018-05-12T09:46:16.076Z,20.10
2018-05-12T09:47:16.212Z,20.12
2018-05-12T09:48:16.229Z,20.18
2018-05-12T09:49:16.265Z,20.14
2018-05-12T09:50:16.138Z,20.18
2018-05-12T09:51:16.170Z,20.32
2018-05-12T09:52:16.174Z,20.34
2018-05-12T09:53:16.185Z,20.44
2018-05-12T09:54:16.343Z,20.42
2018-05-12T09:55:16.214Z,20.49
2018-05-12T09:56:16.354Z,20.60
2018-05-12T09:57:16.368Z,20.71
2018-05-12T09:58:16.252Z,20.75
2018-05-12T09:59:16.280Z,20.83
2018-05-12T10:00:16.393Z,21.00
2018-05-12T10:01:16.433Z,21.14
2018-05-12T10:02:16.334Z,21.30
2018-05-12T10:03:16.459Z,21.45
2018-05-12T10:04:16.473Z,21.53
2018-05-12T10:05:16.489Z,21.63
2018-05-12T10:06:16.486Z,21.74
2018-05-12T10:07:16.524Z,21.88
2018-05-12T10:08:16.412Z,21.99
2018-05-12T10:09:16.434Z,22.04
2018-05-12T10:10:16.575Z,22.18
2018-05-12T10:11:16.617Z,22.10
2018-05-12T10:12:16.484Z,22.15
2018-05-12T10:13:16.619Z,22.15
2018-05-12T10:14:16.633Z,22.22
2018-05-12T10:15:16.527Z,22.25
2018-05-12T10:16:16.648Z,22.25
2018-05-12T10:17:16.559Z,22.23
2018-05-12T10:18:16.580Z,22.23
2018-05-12T10:19:16.593Z,22.22
2018-05-12T10:20:16.610Z,22.23
2018-05-12T10:21:16.784Z,22.18
2018-05-12T10:22:16.766Z,22.25
2018-05-12T10:23:16.784Z,22.33
2018-05-12T10:24:16.677Z,22.31
2018-05-12T10:25:16.694Z,22.37
2018-05-12T10:26:16.851Z,22.40
2018-05-12T10:27:16.727Z,22.47
2018-05-12T10:28:16.743Z,22.73
2018-05-12T10:29:16.887Z,22.74
2018-05-12T10:30:16.904Z,22.77
2018-05-12T10:31:16.903Z,22.71
2018-05-12T10:32:16.809Z,22.62
2018-05-12T10:33:16.835Z,22.67
2018-05-12T10:34:16.852Z,22.76
2018-05-12T10:35:16.987Z,22.73
2018-05-12T10:36:17.106Z,22.84
2018-05-12T10:37:17.023Z,22.74
2018-05-12T10:38:16.921Z,22.81
2018-05-12T10:39:17.059Z,22.80
2018-05-12T10:40:17.076Z,22.83
2018-05-12T10:41:17.123Z,22.80
2018-05-12T10:42:16.985Z,22.93
2018-05-12T10:43:17.006Z,22.99
2018-05-12T10:44:17.015Z,23.14
2018-05-12T10:45:17.189Z,23.07
2018-05-12T10:46:17.204Z,23.16
2018-05-12T10:47:17.071Z,23.10
2018-05-12T10:48:17.211Z,23.14
2018-05-12T10:49:17.232Z,23.13
2018-05-12T10:50:17.128Z,23.07
2018-05-12T10:51:17.287Z,23.06
2018-05-12T10:52:17.159Z,23.06
2018-05-12T10:53:17.302Z,23.04
2018-05-12T10:54:17.190Z,23.08
2018-05-12T10:55:17.334Z,23.13
2018-05-12T10:56:17.350Z,23.13
2018-05-12T10:57:17.392Z,23.10
2018-05-12T10:58:17.269Z,23.14
2018-05-12T10:59:17.278Z,23.16
2018-05-12T11:00:17.301Z,23.21
2018-05-12T11:01:17.324Z,23.20
2018-05-12T11:02:17.507Z,23.18
2018-05-12T11:03:17.359Z,23.25
2018-05-12T11:04:17.489Z,23.21
2018-05-12T11:05:17.512Z,23.29
2018-05-12T11:06:17.405Z,23.14
2018-05-12T11:07:17.416Z,23.21
2018-05-12T11:08:17.483Z,23.40
2018-05-12T11:09:17.464Z,23.58
2018-05-12T11:10:17.596Z,23.62
2018-05-12T11:11:17.502Z,23.56
2018-05-12T11:12:17.515Z,23.69
2018-05-12T11:13:17.527Z,23.69
2018-05-12T11:14:17.813Z,23.79
2018-05-12T11:15:17.564Z,23.82
2018-05-12T11:16:17.573Z,23.85
2018-05-12T11:17:17.603Z,23.81
2018-05-12T11:18:17.609Z,23.94
2018-05-12T11:19:17.632Z,24.00
2018-05-12T11:20:17.969Z,24.18
2018-05-12T11:21:17.668Z,24.18
2018-05-12T11:22:17.680Z,24.29
2018-05-12T11:23:17.706Z,24.32
2018-05-12T11:24:17.723Z,24.28
2018-05-12T11:25:17.970Z,24.29
2018-05-12T11:26:17.753Z,24.34
2018-05-12T11:27:17.772Z,24.46
2018-05-12T11:28:17.794Z,24.46
2018-05-12T11:29:17.802Z,24.51
2018-05-12T11:30:17.970Z,24.59
2018-05-12T11:31:17.965Z,24.62
2018-05-12T11:32:17.966Z,24.82
2018-05-12T11:33:18.001Z,24.79
2018-05-12T11:34:18.020Z,24.79
2018-05-12T11:35:17.920Z,24.78
2018-05-12T11:36:18.031Z,24.96
2018-05-12T11:37:17.955Z,25.03
2018-05-12T11:38:18.092Z,25.11
2018-05-12T11:39:17.992Z,25.04
2018-05-12T11:40:18.002Z,25.01
2018-05-12T11:41:18.301Z,25.04
2018-05-12T11:42:18.164Z,25.00
2018-05-12T11:43:18.183Z,24.88
2018-05-12T11:44:18.084Z,24.93
2018-05-12T11:45:18.094Z,24.86
2018-05-12T11:46:18.221Z,24.84
2018-05-12T11:47:18.260Z,24.89
2018-05-12T11:48:18.157Z,25.03
2018-05-12T11:49:18.295Z,25.12
2018-05-12T11:50:18.194Z,25.22
2018-05-12T11:51:18.442Z,25.41
2018-05-12T11:52:18.352Z,25.59
2018-05-12T11:53:18.246Z,25.67
2018-05-12T11:54:18.272Z,25.76
2018-05-12T11:55:18.410Z,25.73
2018-05-12T11:56:18.451Z,25.78
2018-05-12T11:57:18.335Z,25.95
2018-05-12T11:58:18.481Z,26.07
2018-05-12T11:59:18.370Z,26.37
2018-05-12T12:00:18.501Z,26.71
2018-05-12T12:01:18.407Z,26.91
2018-05-12T12:02:18.513Z,27.03
2018-05-12T12:03:18.448Z,26.85
2018-05-12T12:04:18.585Z,26.93
2018-05-12T12:05:18.600Z,27.11
2018-05-12T12:06:18.485Z,27.10
2018-05-12T12:09:18.552Z,27.23
2018-05-12T12:10:18.703Z,27.38
2018-05-12T12:11:18.721Z,27.55
2018-05-12T12:12:18.617Z,27.78
2018-05-12T12:13:18.859Z,28.01
2018-05-12T12:14:18.651Z,28.06
2018-05-12T12:15:18.681Z,28.18
2018-05-12T12:16:18.703Z,28.30
2018-05-12T12:17:18.706Z,28.31
2018-05-12T12:18:18.889Z,28.43
2018-05-12T12:19:18.755Z,28.46
2018-05-12T12:20:18.901Z,28.12
2018-05-12T12:21:18.805Z,28.27
2018-05-12T12:22:18.937Z,28.01
2018-05-12T12:23:18.990Z,27.91
2018-05-12T12:24:18.982Z,27.86
2018-05-12T12:25:19.003Z,28.06
2018-05-12T12:26:18.900Z,28.25
2018-05-12T12:27:19.074Z,28.45
2018-05-12T12:28:19.211Z,28.38
2018-05-12T12:29:18.956Z,28.27
2018-05-12T12:30:18.983Z,28.33
2018-05-12T12:31:19.121Z,28.25
2018-05-12T12:32:19.028Z,28.33
2018-05-12T12:33:19.226Z,27.97
2018-05-12T12:34:19.068Z,28.00
2018-05-12T12:35:19.204Z,28.12
2018-05-12T12:36:19.223Z,28.35
2018-05-12T12:37:19.118Z,28.57
2018-05-12T12:38:19.255Z,28.60
2018-05-12T12:39:19.166Z,28.84
2018-05-12T12:40:19.305Z,28.97
2018-05-12T12:41:19.327Z,28.57
2018-05-12T12:42:19.229Z,28.65
2018-05-12T12:43:19.518Z,28.72
2018-05-12T12:44:19.276Z,28.72
2018-05-12T12:45:19.283Z,28.70
2018-05-12T12:46:19.302Z,28.71
2018-05-12T12:47:19.330Z,28.49
2018-05-12T12:48:19.541Z,28.43
2018-05-12T12:49:19.492Z,28.34
2018-05-12T12:50:19.403Z,28.49
2018-05-12T12:51:19.420Z,28.65
2018-05-12T12:52:19.427Z,28.93
2018-05-12T12:53:19.551Z,29.03
2018-05-12T12:54:19.476Z,29.22